sensor_id;sensor_type;location;lat;lon;timestamp;temperature;humidity
1361;DHT22;674;45.552;-122.600;2023-12-04T00:00:16;13.90;99.90
1361;DHT22;674;45.552;-122.600;2023-12-04T00:02:44;13.90;99.90
1361;DHT22;674;45.552;-122.600;2023-12-04T00:05:13;13.90;99.90
1361;DHT22;674;45.552;-122.600;2023-12-04T00:07:42;13.90;99.90
1361;DHT22;674;45.552;-122.600;2023-12-04T00:10:10;13.90;99.90
1361;DHT22;674;45.552;-122.600;2023-12-04T00:12:39;13.80;99.90
1361;DHT22;674;45.552;-122.600;2023-12-04T00:15:08;13.90;99.90
1361;DHT22;674;45.552;-122.600;2023-12-04T00:17:37;13.90;99.90
1361;DHT22;674;45.552;-122.600;2023-12-04T00:20:09;13.80;99.90
1361;DHT22;674;45.552;-122.600;2023-12-04T00:22:38;13.80;99.90
1361;DHT22;674;45.552;-122.600;2023-12-04T00:25:07;13.80;99.90
1361;DHT22;674;45.552;-122.600;2023-12-04T00:27:36;13.80;99.90
1361;DHT22;674;45.552;-122.600;2023-12-04T00:30:05;13.70;99.90
1361;DHT22;674;45.552;-122.600;2023-12-04T00:32:34;13.70;99.90
1361;DHT22;674;45.552;-122.600;2023-12-04T00:35:03;13.70;99.90
1361;DHT22;674;45.552;-122.600;2023-12-04T00:37:31;13.70;99.90
1361;DHT22;674;45.552;-122.600;2023-12-04T00:40:00;13.70;99.90
1361;DHT22;674;45.552;-122.600;2023-12-04T00:42:28;13.70;99.90
1361;DHT22;674;45.552;-122.600;2023-12-04T00:44:57;13.70;99.90
1361;DHT22;674;45.552;-122.600;2023-12-04T00:47:26;13.70;99.90
1361;DHT22;674;45.552;-122.600;2023-12-04T00:49:55;13.70;99.90
1361;DHT22;674;45.552;-122.600;2023-12-04T00:52:23;13.70;99.90
1361;DHT22;674;45.552;-122.600;2023-12-04T00:54:52;13.60;99.90
1361;DHT22;674;45.552;-122.600;2023-12-04T00:57:21;13.60;99.90
1361;DHT22;674;45.552;-122.600;2023-12-04T00:59:50;13.60;99.90
1361;DHT22;674;45.552;-122.600;2023-12-04T01:02:19;13.60;99.90
1361;DHT22;674;45.552;-122.600;2023-12-04T01:04:47;13.60;99.90
1361;DHT22;674;45.552;-122.600;2023-12-04T01:07:16;13.60;99.90
1361;DHT22;674;45.552;-122.600;2023-12-04T01:09:44;13.60;99.90
1361;DHT22;674;45.552;-122.600;2023-12-04T01:12:13;13.60;99.90
1361;DHT22;674;45.552;-122.600;2023-12-04T01:14:41;13.50;99.90
1361;DHT22;674;45.552;-122.600;2023-12-04T01:17:10;13.50;99.90
1361;DHT22;674;45.552;-122.600;2023-12-04T01:19:38;13.50;99.90
1361;DHT22;674;45.552;-122.600;2023-12-04T01:22:07;13.50;99.90
1361;DHT22;674;45.552;-122.600;2023-12-04T01:24:36;13.50;99.90
1361;DHT22;674;45.552;-122.600;2023-12-04T01:27:04;13.50;99.90
1361;DHT22;674;45.552;-122.600;2023-12-04T01:29:33;13.50;99.90
1361;DHT22;674;45.552;-122.600;2023-12-04T01:32:02;13.40;99.90
1361;DHT22;674;45.552;-122.600;2023-12-04T01:34:30;13.40;99.90
1361;DHT22;674;45.552;-122.600;2023-12-04T01:36:59;13.40;99.90
1361;DHT22;674;45.552;-122.600;2023-12-04T01:39:27;13.40;99.90
1361;DHT22;674;45.552;-122.600;2023-12-04T01:41:56;13.40;99.90
1361;DHT22;674;45.552;-122.600;2023-12-04T01:44:25;13.40;99.90
1361;DHT22;674;45.552;-122.600;2023-12-04T01:46:53;13.40;99.90
1361;DHT22;674;45.552;-122.600;2023-12-04T01:49:23;13.40;99.90
1361;DHT22;674;45.552;-122.600;2023-12-04T01:51:52;13.30;99.90
1361;DHT22;674;45.552;-122.600;2023-12-04T01:54:21;13.30;99.90
1361;DHT22;674;45.552;-122.600;2023-12-04T01:56:50;13.30;99.90
1361;DHT22;674;45.552;-122.600;2023-12-04T01:59:18;13.30;99.90
1361;DHT22;674;45.552;-122.600;2023-12-04T02:01:48;13.30;99.90
1361;DHT22;674;45.552;-122.600;2023-12-04T02:04:17;13.30;99.90
1361;DHT22;674;45.552;-122.600;2023-12-04T02:06:45;13.30;99.90
1361;DHT22;674;45.552;-122.600;2023-12-04T02:09:15;13.30;99.90
1361;DHT22;674;45.552;-122.600;2023-12-04T02:11:44;13.30;99.90
1361;DHT22;674;45.552;-122.600;2023-12-04T02:14:13;13.30;99.90
1361;DHT22;674;45.552;-122.600;2023-12-04T02:16:42;13.30;99.90
1361;DHT22;674;45.552;-122.600;2023-12-04T02:19:12;13.20;99.90
1361;DHT22;674;45.552;-122.600;2023-12-04T02:21:41;13.20;99.90
1361;DHT22;674;45.552;-122.600;2023-12-04T02:24:09;13.10;99.90
1361;DHT22;674;45.552;-122.600;2023-12-04T02:26:55;13.20;99.90
1361;DHT22;674;45.552;-122.600;2023-12-04T02:29:39;13.20;99.90
1361;DHT22;674;45.552;-122.600;2023-12-04T02:32:11;13.20;99.90
1361;DHT22;674;45.552;-122.600;2023-12-04T02:34:44;13.20;99.90
1361;DHT22;674;45.552;-122.600;2023-12-04T02:37:15;13.20;99.90
1361;DHT22;674;45.552;-122.600;2023-12-04T02:39:45;13.20;99.90
1361;DHT22;674;45.552;-122.600;2023-12-04T02:42:14;13.20;99.90
1361;DHT22;674;45.552;-122.600;2023-12-04T02:44:45;13.10;99.90
1361;DHT22;674;45.552;-122.600;2023-12-04T02:47:13;13.10;99.90
1361;DHT22;674;45.552;-122.600;2023-12-04T02:49:42;13.00;99.90
1361;DHT22;674;45.552;-122.600;2023-12-04T02:52:11;12.90;99.90
1361;DHT22;674;45.552;-122.600;2023-12-04T02:54:39;12.60;99.90
1361;DHT22;674;45.552;-122.600;2023-12-04T02:57:08;12.30;99.90
1361;DHT22;674;45.552;-122.600;2023-12-04T02:59:37;12.20;99.90
1361;DHT22;674;45.552;-122.600;2023-12-04T03:02:05;12.10;99.90
1361;DHT22;674;45.552;-122.600;2023-12-04T03:04:35;11.90;99.90
1361;DHT22;674;45.552;-122.600;2023-12-04T03:07:03;11.90;99.90
1361;DHT22;674;45.552;-122.600;2023-12-04T03:09:32;11.80;99.90
1361;DHT22;674;45.552;-122.600;2023-12-04T03:12:18;11.70;99.90
1361;DHT22;674;45.552;-122.600;2023-12-04T03:14:47;11.70;99.90
1361;DHT22;674;45.552;-122.600;2023-12-04T03:17:16;11.70;99.90
1361;DHT22;674;45.552;-122.600;2023-12-04T03:19:44;11.80;99.90
1361;DHT22;674;45.552;-122.600;2023-12-04T03:22:13;11.70;99.90
1361;DHT22;674;45.552;-122.600;2023-12-04T03:24:42;11.70;99.90
1361;DHT22;674;45.552;-122.600;2023-12-04T03:27:10;11.70;99.90
1361;DHT22;674;45.552;-122.600;2023-12-04T03:29:39;11.70;99.90
1361;DHT22;674;45.552;-122.600;2023-12-04T03:32:08;11.70;99.90
1361;DHT22;674;45.552;-122.600;2023-12-04T03:34:36;11.70;99.90
1361;DHT22;674;45.552;-122.600;2023-12-04T03:37:05;11.70;99.90
1361;DHT22;674;45.552;-122.600;2023-12-04T03:39:33;11.70;99.90
1361;DHT22;674;45.552;-122.600;2023-12-04T03:42:02;11.70;99.90
1361;DHT22;674;45.552;-122.600;2023-12-04T03:44:31;11.70;99.90
1361;DHT22;674;45.552;-122.600;2023-12-04T03:47:00;11.70;99.90
1361;DHT22;674;45.552;-122.600;2023-12-04T03:49:29;11.70;99.90
1361;DHT22;674;45.552;-122.600;2023-12-04T03:51:57;11.70;99.90
1361;DHT22;674;45.552;-122.600;2023-12-04T03:54:26;11.70;99.90
1361;DHT22;674;45.552;-122.600;2023-12-04T03:56:54;11.70;99.90
1361;DHT22;674;45.552;-122.600;2023-12-04T03:59:23;11.80;99.90
1361;DHT22;674;45.552;-122.600;2023-12-04T04:01:52;11.60;99.90
1361;DHT22;674;45.552;-122.600;2023-12-04T04:04:20;11.60;99.90
1361;DHT22;674;45.552;-122.600;2023-12-04T04:06:49;11.60;99.90
1361;DHT22;674;45.552;-122.600;2023-12-04T04:09:17;11.60;99.90
1361;DHT22;674;45.552;-122.600;2023-12-04T04:11:48;11.60;99.90
1361;DHT22;674;45.552;-122.600;2023-12-04T04:14:16;11.60;99.90
1361;DHT22;674;45.552;-122.600;2023-12-04T04:16:45;11.60;99.90
1361;DHT22;674;45.552;-122.600;2023-12-04T04:19:13;11.60;99.90
1361;DHT22;674;45.552;-122.600;2023-12-04T04:21:42;11.60;99.90
1361;DHT22;674;45.552;-122.600;2023-12-04T04:24:11;11.60;99.90
1361;DHT22;674;45.552;-122.600;2023-12-04T04:26:39;11.60;99.90
1361;DHT22;674;45.552;-122.600;2023-12-04T04:29:08;11.60;99.90
1361;DHT22;674;45.552;-122.600;2023-12-04T04:31:37;11.70;99.90
1361;DHT22;674;45.552;-122.600;2023-12-04T04:34:06;11.70;99.90
1361;DHT22;674;45.552;-122.600;2023-12-04T04:36:34;11.50;99.90
1361;DHT22;674;45.552;-122.600;2023-12-04T04:39:03;11.40;99.90
1361;DHT22;674;45.552;-122.600;2023-12-04T04:41:33;11.40;99.90
1361;DHT22;674;45.552;-122.600;2023-12-04T04:44:02;11.40;99.90
1361;DHT22;674;45.552;-122.600;2023-12-04T04:46:30;11.30;99.90
1361;DHT22;674;45.552;-122.600;2023-12-04T04:48:59;11.20;99.90
1361;DHT22;674;45.552;-122.600;2023-12-04T04:51:28;11.10;99.90
1361;DHT22;674;45.552;-122.600;2023-12-04T04:54:00;11.10;99.90
1361;DHT22;674;45.552;-122.600;2023-12-04T04:56:29;11.20;99.90
1361;DHT22;674;45.552;-122.600;2023-12-04T04:58:58;11.20;99.90
1361;DHT22;674;45.552;-122.600;2023-12-04T05:01:26;11.20;99.90
1361;DHT22;674;45.552;-122.600;2023-12-04T05:03:55;11.10;99.90
1361;DHT22;674;45.552;-122.600;2023-12-04T05:06:24;11.00;99.90
1361;DHT22;674;45.552;-122.600;2023-12-04T05:08:52;11.00;99.90
1361;DHT22;674;45.552;-122.600;2023-12-04T05:11:21;11.00;99.90
1361;DHT22;674;45.552;-122.600;2023-12-04T05:13:49;11.00;99.90
1361;DHT22;674;45.552;-122.600;2023-12-04T05:16:18;10.90;99.90
1361;DHT22;674;45.552;-122.600;2023-12-04T05:18:47;10.90;99.90
1361;DHT22;674;45.552;-122.600;2023-12-04T05:21:15;10.90;99.90
1361;DHT22;674;45.552;-122.600;2023-12-04T05:23:44;10.90;99.90
1361;DHT22;674;45.552;-122.600;2023-12-04T05:26:13;10.80;99.90
1361;DHT22;674;45.552;-122.600;2023-12-04T05:28:41;10.80;99.90
1361;DHT22;674;45.552;-122.600;2023-12-04T05:31:10;10.80;99.90
1361;DHT22;674;45.552;-122.600;2023-12-04T05:33:38;10.80;99.90
1361;DHT22;674;45.552;-122.600;2023-12-04T05:36:11;10.80;99.90
1361;DHT22;674;45.552;-122.600;2023-12-04T05:38:40;10.80;99.90
1361;DHT22;674;45.552;-122.600;2023-12-04T05:41:08;10.80;99.90
1361;DHT22;674;45.552;-122.600;2023-12-04T05:43:37;10.80;99.90
1361;DHT22;674;45.552;-122.600;2023-12-04T05:46:06;10.80;99.90
1361;DHT22;674;45.552;-122.600;2023-12-04T05:48:34;10.80;99.90
1361;DHT22;674;45.552;-122.600;2023-12-04T05:51:03;10.90;99.90
1361;DHT22;674;45.552;-122.600;2023-12-04T05:53:32;10.90;99.90
1361;DHT22;674;45.552;-122.600;2023-12-04T05:56:00;10.90;99.90
1361;DHT22;674;45.552;-122.600;2023-12-04T05:58:29;10.90;99.90
1361;DHT22;674;45.552;-122.600;2023-12-04T06:00:57;10.90;99.90
1361;DHT22;674;45.552;-122.600;2023-12-04T06:03:26;11.00;99.90
1361;DHT22;674;45.552;-122.600;2023-12-04T06:05:55;10.90;99.90
1361;DHT22;674;45.552;-122.600;2023-12-04T06:08:26;11.00;99.90
1361;DHT22;674;45.552;-122.600;2023-12-04T06:10:55;11.00;99.90
1361;DHT22;674;45.552;-122.600;2023-12-04T06:13:23;11.00;99.90
1361;DHT22;674;45.552;-122.600;2023-12-04T06:15:52;11.00;99.90
1361;DHT22;674;45.552;-122.600;2023-12-04T06:18:21;11.00;99.90
1361;DHT22;674;45.552;-122.600;2023-12-04T06:20:51;11.00;99.90
1361;DHT22;674;45.552;-122.600;2023-12-04T06:23:20;11.00;99.90
1361;DHT22;674;45.552;-122.600;2023-12-04T06:25:49;11.00;99.90
1361;DHT22;674;45.552;-122.600;2023-12-04T06:28:18;11.00;99.90
1361;DHT22;674;45.552;-122.600;2023-12-04T06:30:47;11.10;99.90
1361;DHT22;674;45.552;-122.600;2023-12-04T06:33:16;11.10;99.90
1361;DHT22;674;45.552;-122.600;2023-12-04T06:35:46;11.10;99.90
1361;DHT22;674;45.552;-122.600;2023-12-04T06:38:16;11.10;99.90
1361;DHT22;674;45.552;-122.600;2023-12-04T06:40:47;11.10;99.90
1361;DHT22;674;45.552;-122.600;2023-12-04T06:43:16;11.20;99.90
1361;DHT22;674;45.552;-122.600;2023-12-04T06:45:46;11.30;99.90
1361;DHT22;674;45.552;-122.600;2023-12-04T06:48:16;11.30;99.90
1361;DHT22;674;45.552;-122.600;2023-12-04T06:50:45;11.40;99.90
1361;DHT22;674;45.552;-122.600;2023-12-04T06:53:14;11.50;99.90
1361;DHT22;674;45.552;-122.600;2023-12-04T06:55:42;11.50;99.90
1361;DHT22;674;45.552;-122.600;2023-12-04T06:58:12;11.60;99.90
1361;DHT22;674;45.552;-122.600;2023-12-04T07:00:41;11.60;99.90
1361;DHT22;674;45.552;-122.600;2023-12-04T07:03:10;11.80;99.90
1361;DHT22;674;45.552;-122.600;2023-12-04T07:05:38;11.80;99.90
1361;DHT22;674;45.552;-122.600;2023-12-04T07:08:07;11.90;99.90
1361;DHT22;674;45.552;-122.600;2023-12-04T07:10:35;12.00;99.90
1361;DHT22;674;45.552;-122.600;2023-12-04T07:13:04;12.00;99.90
1361;DHT22;674;45.552;-122.600;2023-12-04T07:15:33;12.10;99.90
1361;DHT22;674;45.552;-122.600;2023-12-04T07:18:01;12.10;99.90
1361;DHT22;674;45.552;-122.600;2023-12-04T07:20:30;12.10;99.90
1361;DHT22;674;45.552;-122.600;2023-12-04T07:22:58;12.10;99.90
1361;DHT22;674;45.552;-122.600;2023-12-04T07:25:28;12.10;99.90
1361;DHT22;674;45.552;-122.600;2023-12-04T07:27:56;12.10;99.90
1361;DHT22;674;45.552;-122.600;2023-12-04T07:30:28;12.10;99.90
1361;DHT22;674;45.552;-122.600;2023-12-04T07:32:56;12.00;99.90
1361;DHT22;674;45.552;-122.600;2023-12-04T07:35:26;12.20;99.90
1361;DHT22;674;45.552;-122.600;2023-12-04T07:37:54;12.40;99.90
1361;DHT22;674;45.552;-122.600;2023-12-04T07:40:23;12.10;99.90
1361;DHT22;674;45.552;-122.600;2023-12-04T07:42:51;12.10;99.90
1361;DHT22;674;45.552;-122.600;2023-12-04T07:45:20;12.20;99.90
1361;DHT22;674;45.552;-122.600;2023-12-04T07:47:49;12.20;99.90
1361;DHT22;674;45.552;-122.600;2023-12-04T07:50:18;12.20;99.90
1361;DHT22;674;45.552;-122.600;2023-12-04T07:52:47;12.20;99.90
1361;DHT22;674;45.552;-122.600;2023-12-04T07:55:15;12.20;99.90
1361;DHT22;674;45.552;-122.600;2023-12-04T07:57:44;12.30;99.90
1361;DHT22;674;45.552;-122.600;2023-12-04T08:00:13;12.30;99.90
1361;DHT22;674;45.552;-122.600;2023-12-04T08:02:42;12.30;99.90
1361;DHT22;674;45.552;-122.600;2023-12-04T08:05:13;12.20;99.90
1361;DHT22;674;45.552;-122.600;2023-12-04T08:07:41;12.20;99.90
1361;DHT22;674;45.552;-122.600;2023-12-04T08:10:10;12.20;99.90
1361;DHT22;674;45.552;-122.600;2023-12-04T08:12:38;12.20;99.90
1361;DHT22;674;45.552;-122.600;2023-12-04T08:15:08;12.20;99.90
1361;DHT22;674;45.552;-122.600;2023-12-04T08:17:36;12.20;99.90
1361;DHT22;674;45.552;-122.600;2023-12-04T08:20:06;12.20;99.90
1361;DHT22;674;45.552;-122.600;2023-12-04T08:22:34;12.20;99.90
1361;DHT22;674;45.552;-122.600;2023-12-04T08:25:03;12.30;99.90
1361;DHT22;674;45.552;-122.600;2023-12-04T08:27:33;12.30;99.90
1361;DHT22;674;45.552;-122.600;2023-12-04T08:30:01;12.30;99.90
1361;DHT22;674;45.552;-122.600;2023-12-04T08:32:31;12.30;99.90
1361;DHT22;674;45.552;-122.600;2023-12-04T08:34:59;12.40;99.90
1361;DHT22;674;45.552;-122.600;2023-12-04T08:37:28;12.40;99.90
1361;DHT22;674;45.552;-122.600;2023-12-04T08:39:57;12.40;99.90
1361;DHT22;674;45.552;-122.600;2023-12-04T08:42:25;12.40;99.90
1361;DHT22;674;45.552;-122.600;2023-12-04T08:44:54;12.40;99.90
1361;DHT22;674;45.552;-122.600;2023-12-04T08:47:23;12.40;99.90
1361;DHT22;674;45.552;-122.600;2023-12-04T08:49:53;12.50;99.90
1361;DHT22;674;45.552;-122.600;2023-12-04T08:52:22;12.40;99.90
1361;DHT22;674;45.552;-122.600;2023-12-04T08:54:50;12.50;99.90
1361;DHT22;674;45.552;-122.600;2023-12-04T08:57:19;12.50;99.90
1361;DHT22;674;45.552;-122.600;2023-12-04T08:59:47;12.50;99.90
1361;DHT22;674;45.552;-122.600;2023-12-04T09:02:16;12.50;99.90
1361;DHT22;674;45.552;-122.600;2023-12-04T09:04:44;12.40;99.90
1361;DHT22;674;45.552;-122.600;2023-12-04T09:07:13;12.50;99.90
1361;DHT22;674;45.552;-122.600;2023-12-04T09:09:45;12.50;99.90
1361;DHT22;674;45.552;-122.600;2023-12-04T09:12:14;12.50;99.90
1361;DHT22;674;45.552;-122.600;2023-12-04T09:14:43;12.50;99.90
1361;DHT22;674;45.552;-122.600;2023-12-04T09:17:11;12.50;99.90
1361;DHT22;674;45.552;-122.600;2023-12-04T09:19:40;12.50;99.90
1361;DHT22;674;45.552;-122.600;2023-12-04T09:22:08;12.50;99.90
1361;DHT22;674;45.552;-122.600;2023-12-04T09:24:45;12.50;99.90
1361;DHT22;674;45.552;-122.600;2023-12-04T09:27:14;12.50;99.90
1361;DHT22;674;45.552;-122.600;2023-12-04T09:29:43;12.60;99.90
1361;DHT22;674;45.552;-122.600;2023-12-04T09:32:11;12.60;99.90
1361;DHT22;674;45.552;-122.600;2023-12-04T09:34:40;12.60;99.90
1361;DHT22;674;45.552;-122.600;2023-12-04T09:37:09;12.90;99.90
1361;DHT22;674;45.552;-122.600;2023-12-04T09:39:39;12.60;99.90
1361;DHT22;674;45.552;-122.600;2023-12-04T09:42:08;12.60;99.90
1361;DHT22;674;45.552;-122.600;2023-12-04T09:44:38;12.60;99.90
1361;DHT22;674;45.552;-122.600;2023-12-04T09:47:08;12.60;99.90
1361;DHT22;674;45.552;-122.600;2023-12-04T09:49:38;12.60;99.90
1361;DHT22;674;45.552;-122.600;2023-12-04T09:52:08;12.60;99.90
1361;DHT22;674;45.552;-122.600;2023-12-04T09:54:36;12.60;99.90
1361;DHT22;674;45.552;-122.600;2023-12-04T09:57:06;12.60;99.90
1361;DHT22;674;45.552;-122.600;2023-12-04T09:59:35;12.60;99.90
1361;DHT22;674;45.552;-122.600;2023-12-04T10:02:05;12.60;99.90
1361;DHT22;674;45.552;-122.600;2023-12-04T10:04:34;12.60;99.90
1361;DHT22;674;45.552;-122.600;2023-12-04T10:07:04;12.60;99.90
1361;DHT22;674;45.552;-122.600;2023-12-04T10:09:32;12.60;99.90
1361;DHT22;674;45.552;-122.600;2023-12-04T10:12:01;12.70;99.90
1361;DHT22;674;45.552;-122.600;2023-12-04T10:14:30;12.70;99.90
1361;DHT22;674;45.552;-122.600;2023-12-04T10:16:59;12.60;99.90
1361;DHT22;674;45.552;-122.600;2023-12-04T10:19:28;12.70;99.90
1361;DHT22;674;45.552;-122.600;2023-12-04T10:21:58;12.70;99.90
1361;DHT22;674;45.552;-122.600;2023-12-04T10:24:35;12.70;99.90
1361;DHT22;674;45.552;-122.600;2023-12-04T10:27:06;12.70;99.90
1361;DHT22;674;45.552;-122.600;2023-12-04T10:29:46;12.60;99.90
1361;DHT22;674;45.552;-122.600;2023-12-04T10:32:20;12.60;99.90
1361;DHT22;674;45.552;-122.600;2023-12-04T10:34:52;12.70;99.90
1361;DHT22;674;45.552;-122.600;2023-12-04T10:37:23;12.70;99.90
1361;DHT22;674;45.552;-122.600;2023-12-04T10:39:53;12.70;99.90
1361;DHT22;674;45.552;-122.600;2023-12-04T10:42:26;12.70;99.90
1361;DHT22;674;45.552;-122.600;2023-12-04T10:44:56;12.70;99.90
1361;DHT22;674;45.552;-122.600;2023-12-04T10:47:31;12.70;99.90
1361;DHT22;674;45.552;-122.600;2023-12-04T10:50:02;12.70;99.90
1361;DHT22;674;45.552;-122.600;2023-12-04T10:52:32;12.70;99.90
1361;DHT22;674;45.552;-122.600;2023-12-04T10:55:02;12.70;99.90
1361;DHT22;674;45.552;-122.600;2023-12-04T10:57:37;12.80;99.90
1361;DHT22;674;45.552;-122.600;2023-12-04T11:00:09;12.80;99.90
1361;DHT22;674;45.552;-122.600;2023-12-04T11:02:43;12.80;99.90
1361;DHT22;674;45.552;-122.600;2023-12-04T11:05:20;12.80;99.90
1361;DHT22;674;45.552;-122.600;2023-12-04T11:07:54;12.80;99.90
1361;DHT22;674;45.552;-122.600;2023-12-04T11:10:58;12.80;99.90
1361;DHT22;674;45.552;-122.600;2023-12-04T11:13:28;12.80;99.90
1361;DHT22;674;45.552;-122.600;2023-12-04T11:16:13;12.80;99.90
1361;DHT22;674;45.552;-122.600;2023-12-04T11:18:44;12.80;99.90
1361;DHT22;674;45.552;-122.600;2023-12-04T11:21:17;12.80;99.90
1361;DHT22;674;45.552;-122.600;2023-12-04T11:23:48;12.80;99.90
1361;DHT22;674;45.552;-122.600;2023-12-04T11:26:17;12.80;99.90
1361;DHT22;674;45.552;-122.600;2023-12-04T11:28:46;12.80;99.90
1361;DHT22;674;45.552;-122.600;2023-12-04T11:31:16;12.80;99.90
1361;DHT22;674;45.552;-122.600;2023-12-04T11:33:45;12.80;99.90
1361;DHT22;674;45.552;-122.600;2023-12-04T11:36:13;12.80;99.90
1361;DHT22;674;45.552;-122.600;2023-12-04T11:38:48;12.80;99.90
1361;DHT22;674;45.552;-122.600;2023-12-04T11:41:20;12.80;99.90
1361;DHT22;674;45.552;-122.600;2023-12-04T11:43:55;12.80;99.90
1361;DHT22;674;45.552;-122.600;2023-12-04T11:46:26;12.80;99.90
1361;DHT22;674;45.552;-122.600;2023-12-04T11:48:57;12.80;99.90
1361;DHT22;674;45.552;-122.600;2023-12-04T11:54:18;12.80;99.90
1361;DHT22;674;45.552;-122.600;2023-12-04T11:59:27;12.90;99.90
1361;DHT22;674;45.552;-122.600;2023-12-04T12:01:57;12.90;99.90
1361;DHT22;674;45.552;-122.600;2023-12-04T12:04:27;12.80;99.90
1361;DHT22;674;45.552;-122.600;2023-12-04T12:06:58;12.80;99.90
1361;DHT22;674;45.552;-122.600;2023-12-04T12:09:31;12.80;99.90
1361;DHT22;674;45.552;-122.600;2023-12-04T12:12:02;12.80;99.90
1361;DHT22;674;45.552;-122.600;2023-12-04T12:14:31;12.80;99.90
1361;DHT22;674;45.552;-122.600;2023-12-04T12:17:00;12.80;99.90
1361;DHT22;674;45.552;-122.600;2023-12-04T12:19:31;12.80;99.90
1361;DHT22;674;45.552;-122.600;2023-12-04T12:22:00;12.80;99.90
1361;DHT22;674;45.552;-122.600;2023-12-04T12:24:31;12.90;99.90
1361;DHT22;674;45.552;-122.600;2023-12-04T12:27:00;12.90;99.90
1361;DHT22;674;45.552;-122.600;2023-12-04T12:29:28;12.90;99.90
1361;DHT22;674;45.552;-122.600;2023-12-04T12:31:57;12.90;99.90
1361;DHT22;674;45.552;-122.600;2023-12-04T12:34:26;12.90;99.90
1361;DHT22;674;45.552;-122.600;2023-12-04T12:36:55;12.90;99.90
1361;DHT22;674;45.552;-122.600;2023-12-04T12:39:24;12.90;99.90
1361;DHT22;674;45.552;-122.600;2023-12-04T12:41:53;12.90;99.90
1361;DHT22;674;45.552;-122.600;2023-12-04T12:44:21;12.90;99.90
1361;DHT22;674;45.552;-122.600;2023-12-04T12:46:51;12.90;99.90
1361;DHT22;674;45.552;-122.600;2023-12-04T12:49:21;12.90;99.90
1361;DHT22;674;45.552;-122.600;2023-12-04T12:52:06;12.90;99.90
1361;DHT22;674;45.552;-122.600;2023-12-04T12:54:38;12.90;99.90
1361;DHT22;674;45.552;-122.600;2023-12-04T12:57:08;12.90;99.90
1361;DHT22;674;45.552;-122.600;2023-12-04T12:59:40;12.90;99.90
1361;DHT22;674;45.552;-122.600;2023-12-04T13:02:08;13.00;99.90
1361;DHT22;674;45.552;-122.600;2023-12-04T13:04:43;12.90;99.90
1361;DHT22;674;45.552;-122.600;2023-12-04T13:07:12;13.00;99.90
1361;DHT22;674;45.552;-122.600;2023-12-04T13:09:41;13.00;99.90
1361;DHT22;674;45.552;-122.600;2023-12-04T13:12:11;13.00;99.90
1361;DHT22;674;45.552;-122.600;2023-12-04T13:14:40;13.00;99.90
1361;DHT22;674;45.552;-122.600;2023-12-04T13:17:08;13.00;99.90
1361;DHT22;674;45.552;-122.600;2023-12-04T13:19:37;13.00;99.90
1361;DHT22;674;45.552;-122.600;2023-12-04T13:22:06;13.00;99.90
1361;DHT22;674;45.552;-122.600;2023-12-04T13:24:35;13.00;99.90
1361;DHT22;674;45.552;-122.600;2023-12-04T13:27:03;13.00;99.90
1361;DHT22;674;45.552;-122.600;2023-12-04T13:29:32;13.00;99.90
1361;DHT22;674;45.552;-122.600;2023-12-04T13:32:00;12.90;99.90
1361;DHT22;674;45.552;-122.600;2023-12-04T13:34:29;13.00;99.90
1361;DHT22;674;45.552;-122.600;2023-12-04T13:36:58;13.00;99.90
1361;DHT22;674;45.552;-122.600;2023-12-04T13:39:27;13.00;99.90
1361;DHT22;674;45.552;-122.600;2023-12-04T13:42:16;13.00;99.90
1361;DHT22;674;45.552;-122.600;2023-12-04T13:45:03;13.00;99.90
1361;DHT22;674;45.552;-122.600;2023-12-04T13:47:32;13.00;99.90
1361;DHT22;674;45.552;-122.600;2023-12-04T13:50:03;13.10;99.90
1361;DHT22;674;45.552;-122.600;2023-12-04T13:52:32;13.10;99.90
1361;DHT22;674;45.552;-122.600;2023-12-04T13:55:02;13.10;99.90
1361;DHT22;674;45.552;-122.600;2023-12-04T13:57:43;13.10;99.90
1361;DHT22;674;45.552;-122.600;2023-12-04T14:00:23;13.10;99.90
1361;DHT22;674;45.552;-122.600;2023-12-04T14:02:51;13.10;99.90
1361;DHT22;674;45.552;-122.600;2023-12-04T14:05:33;13.10;99.90
1361;DHT22;674;45.552;-122.600;2023-12-04T14:08:04;13.10;99.90
1361;DHT22;674;45.552;-122.600;2023-12-04T14:10:34;13.20;99.90
1361;DHT22;674;45.552;-122.600;2023-12-04T14:13:02;13.20;99.90
1361;DHT22;674;45.552;-122.600;2023-12-04T14:15:31;13.20;99.90
1361;DHT22;674;45.552;-122.600;2023-12-04T14:18:00;13.20;99.90
1361;DHT22;674;45.552;-122.600;2023-12-04T14:20:28;13.20;99.90
1361;DHT22;674;45.552;-122.600;2023-12-04T14:22:57;13.20;99.90
1361;DHT22;674;45.552;-122.600;2023-12-04T14:25:25;13.20;99.90
1361;DHT22;674;45.552;-122.600;2023-12-04T14:27:54;13.20;99.90
1361;DHT22;674;45.552;-122.600;2023-12-04T14:30:23;13.30;99.90
1361;DHT22;674;45.552;-122.600;2023-12-04T14:32:55;13.20;99.90
1361;DHT22;674;45.552;-122.600;2023-12-04T14:35:24;13.20;99.90
1361;DHT22;674;45.552;-122.600;2023-12-04T14:37:53;13.30;99.90
1361;DHT22;674;45.552;-122.600;2023-12-04T14:40:21;13.30;99.90
1361;DHT22;674;45.552;-122.600;2023-12-04T14:42:51;13.30;99.90
1361;DHT22;674;45.552;-122.600;2023-12-04T14:45:20;13.30;99.90
1361;DHT22;674;45.552;-122.600;2023-12-04T14:47:49;13.30;99.90
1361;DHT22;674;45.552;-122.600;2023-12-04T14:50:20;13.30;99.90
1361;DHT22;674;45.552;-122.600;2023-12-04T14:52:48;13.30;99.90
1361;DHT22;674;45.552;-122.600;2023-12-04T14:55:23;13.30;99.90
1361;DHT22;674;45.552;-122.600;2023-12-04T14:57:51;13.30;99.90
1361;DHT22;674;45.552;-122.600;2023-12-04T15:00:26;13.30;99.90
1361;DHT22;674;45.552;-122.600;2023-12-04T15:03:03;13.20;99.90
1361;DHT22;674;45.552;-122.600;2023-12-04T15:05:51;13.30;99.90
1361;DHT22;674;45.552;-122.600;2023-12-04T15:08:45;13.30;99.90
1361;DHT22;674;45.552;-122.600;2023-12-04T15:11:24;13.30;99.90
1361;DHT22;674;45.552;-122.600;2023-12-04T15:13:52;13.30;99.90
1361;DHT22;674;45.552;-122.600;2023-12-04T15:16:30;13.30;99.90
1361;DHT22;674;45.552;-122.600;2023-12-04T15:19:09;13.30;99.90
1361;DHT22;674;45.552;-122.600;2023-12-04T15:21:39;13.30;99.90
1361;DHT22;674;45.552;-122.600;2023-12-04T15:24:08;13.30;99.90
1361;DHT22;674;45.552;-122.600;2023-12-04T15:26:36;13.30;99.90
1361;DHT22;674;45.552;-122.600;2023-12-04T15:29:05;13.40;99.90
1361;DHT22;674;45.552;-122.600;2023-12-04T15:31:33;13.40;99.90
1361;DHT22;674;45.552;-122.600;2023-12-04T15:34:02;13.40;99.90
1361;DHT22;674;45.552;-122.600;2023-12-04T15:36:32;13.40;99.90
1361;DHT22;674;45.552;-122.600;2023-12-04T15:39:01;13.40;99.90
1361;DHT22;674;45.552;-122.600;2023-12-04T15:41:29;13.40;99.90
1361;DHT22;674;45.552;-122.600;2023-12-04T15:43:58;13.40;99.90
1361;DHT22;674;45.552;-122.600;2023-12-04T15:46:26;13.40;99.90
1361;DHT22;674;45.552;-122.600;2023-12-04T15:48:57;13.40;99.90
1361;DHT22;674;45.552;-122.600;2023-12-04T15:51:27;13.50;99.90